Kaunas, Lithuania
Current Conditions -  °F | °C
As of 6:50 AM on Sunday 26 Oct 2014 (Local Time) from EYKA Reporting Station
Overcast Overcast  
Wind Chill: 23°   Ceiling: 2200
Heat Index: 32°   Visibility: 6mi
Dew Point: 12°   Wind: 12mph
Humidity: 44%   Direction: 180°S
Pressure: 30.36"   Gusts: NA
Location:  54.9°N, 23.91°E
Report Text: EYKA 260350Z 18010KT 130V210 9999 OVC022 00/M11 Q1028
Loading
Personal Weather Stations






























Interactive Weather Map
Tropical Storm Tracking
New forecast layout! Learn more

10-Day Weather Forecast

Advertisements
Track Severe Weather on mobile